Time;durP1;ratioP1;P1;durP2;ratioP2;P2;SDS_P1;SDS_P2;PMS_P1;PMS_P2;Temp;Humidity;BMP_temperature;BMP_pressure;BME280_temperature;BME280_humidity;BME280_pressure;Samples;Min_cycle;Max_cycle;Signal;HPM_P1;HPM_P2
2022/06/22 00:00:58;;;;;;;3.85;2.10;;;;;;;14.31;66.94;100986.22;5055770;28;20127;-82
2022/06/22 00:03:24;;;;;;;3.20;2.00;;;;;;;14.28;67.55;100987.16;5089124;28;20035;-82
2022/06/22 00:05:52;;;;;;;1.70;1.60;;;;;;;14.24;67.88;100982.91;5055618;28;20024;-82
2022/06/22 00:08:22;;;;;;;2.30;2.10;;;;;;;14.21;68.00;100988.25;5055484;28;20020;-83
2022/06/22 00:11:03;;;;;;;2.13;2.03;;;;;;;14.17;68.41;100987.44;5071852;28;20584;-83
2022/06/22 00:13:30;;;;;;;3.53;2.20;;;;;;;14.17;68.59;100997.09;5055324;28;20115;-83
2022/06/22 00:16:06;;;;;;;3.03;2.35;;;;;;;14.14;68.38;101002.44;5055463;28;20047;-82
2022/06/22 00:18:41;;;;;;;5.30;1.98;;;;;;;14.10;69.24;101001.66;5072147;28;20024;-82
2022/06/22 00:21:22;;;;;;;;;;;;;;;14.12;67.29;100999.84;5072703;28;20054;-83
2022/06/22 00:23:49;;;;;;;2.95;1.98;;;;;;;14.10;68.76;100995.56;5088816;28;19977;-82
2022/06/22 00:26:22;;;;;;;2.38;2.17;;;;;;;14.07;69.13;101001.75;5055230;28;20024;-83
2022/06/22 00:28:56;;;;;;;2.58;2.20;;;;;;;14.06;68.72;101000.00;5088690;28;20367;-82
2022/06/22 00:31:37;;;;;;;2.33;2.13;;;;;;;14.06;68.20;101005.25;5088782;28;20021;-82
2022/06/22 00:34:09;;;;;;;3.20;2.40;;;;;;;14.01;69.10;101005.38;5072111;28;20504;-82
2022/06/22 00:36:54;;;;;;;2.20;2.00;;;;;;;14.00;68.42;101000.16;5088906;28;20016;-83
2022/06/22 00:39:27;;;;;;;2.33;1.73;;;;;;;13.97;68.60;101001.09;5064165;28;20028;-82
2022/06/22 00:42:14;;;;;;;2.28;2.17;;;;;;;13.93;69.13;100996.81;5088385;28;20123;-82
2022/06/22 00:45:03;;;;;;;2.45;1.85;;;;;;;13.91;68.81;100998.63;5088941;28;20028;-82
2022/06/22 00:47:28;;;;;;;3.65;2.13;;;;;;;13.91;68.56;100988.13;5066009;28;20036;-82
2022/06/22 00:50:19;;;;;;;4.05;2.20;;;;;;;13.86;69.15;100988.25;5088537;28;20035;-83
2022/06/22 00:52:54;;;;;;;2.03;1.92;;;;;;;13.85;69.44;100990.91;5073107;28;20041;-82
2022/06/22 00:55:39;;;;;;;3.25;2.42;;;;;;;13.83;69.40;100990.09;5072620;28;20032;-83
2022/06/22 00:58:07;;;;;;;2.50;2.30;;;;;;;13.81;69.76;100989.25;5072073;28;20039;-83
2022/06/22 01:00:37;;;;;;;3.00;2.38;;;;;;;13.75;69.94;100994.66;5088179;28;20024;-83
2022/06/22 01:03:21;;;;;;;2.53;2.28;;;;;;;13.71;70.14;100977.28;5055266;28;20028;-83
2022/06/22 01:05:56;;;;;;;3.65;2.15;;;;;;;13.70;69.68;100981.63;5055466;28;20027;-83
2022/06/22 01:08:34;;;;;;;2.20;2.10;;;;;;;13.68;70.11;100984.31;5088522;28;20024;-82
2022/06/22 01:12:16;;;;;;;4.30;2.25;;;;;;;13.65;69.81;100983.53;5054816;28;20025;-82
2022/06/22 01:14:02;;;;;;;2.42;2.22;;;;;;;13.62;70.20;100980.97;5072256;28;20036;-82
2022/06/22 01:16:33;;;;;;;2.50;2.30;;;;;;;13.60;69.92;100975.75;5055110;28;20124;-82
2022/06/22 01:19:42;;;;;;;2.67;2.47;;;;;;;13.57;70.17;100986.34;5054692;28;20031;-84
2022/06/22 01:22:20;;;;;;;5.78;2.10;;;;;;;13.57;69.64;100981.09;5087082;28;20075;-82
2022/06/22 01:25:13;;;;;;;2.60;2.40;;;;;;;13.53;71.00;100984.69;5071621;28;20059;-83
2022/06/22 01:27:41;;;;;;;4.20;2.55;;;;;;;13.50;70.46;100979.53;5088505;28;20075;-83
2022/06/22 01:30:37;;;;;;;3.17;2.97;;;;;;;13.46;71.99;100988.38;5073286;28;20055;-83
2022/06/22 01:33:20;;;;;;;5.03;2.42;;;;;;;13.45;70.42;100982.22;5072348;28;20027;-82
2022/06/22 01:35:51;;;;;;;3.53;2.63;;;;;;;13.45;70.47;100984.00;5054784;28;20063;-83
2022/06/22 01:38:29;;;;;;;2.88;2.67;;;;;;;13.39;70.70;100985.03;5054925;28;20478;-83
2022/06/22 01:41:07;;;;;;;2.83;2.67;;;;;;;13.38;70.61;100988.53;5054655;28;20016;-83
2022/06/22 01:43:40;;;;;;;3.30;3.10;;;;;;;13.36;71.21;100982.44;5088304;28;20024;-82
2022/06/22 01:46:23;;;;;;;3.17;2.95;;;;;;;13.32;71.12;100981.63;5071419;28;20078;-83
2022/06/22 01:49:11;;;;;;;4.32;2.60;;;;;;;13.30;71.60;100983.41;5071092;28;20028;-83
2022/06/22 01:51:42;;;;;;;3.15;2.85;;;;;;;13.28;71.05;100989.59;5055795;28;20020;-83
2022/06/22 01:54:19;;;;;;;3.10;2.75;;;;;;;13.25;71.65;100985.31;5058512;28;20059;-82
2022/06/22 01:57:13;;;;;;;3.30;3.00;;;;;;;13.22;71.84;100985.34;5058564;28;20027;-83
2022/06/22 01:59:59;;;;;;;3.50;3.22;;;;;;;13.20;72.47;100979.31;5071469;22;20422;-84
2022/06/22 02:02:26;;;;;;;3.97;3.53;;;;;;;13.22;71.89;100985.34;5053622;28;20035;-83
2022/06/22 02:04:55;;;;;;;5.15;3.67;;;;;;;13.18;73.31;100992.44;5037020;28;20021;-83
2022/06/22 02:07:46;;;;;;;6.20;4.32;;;;;;;13.21;73.18;100995.88;5070148;28;20021;-83
2022/06/22 02:10:28;;;;;;;4.38;4.03;;;;;;;13.24;73.32;100996.69;5053269;28;20021;-83
2022/06/22 02:13:04;;;;;;;4.28;3.97;;;;;;;13.21;73.14;100988.91;5053651;28;20036;-83
2022/06/22 02:15:46;;;;;;;4.55;4.20;;;;;;;13.19;73.29;100993.31;5052337;28;20082;-83
2022/06/22 02:18:15;;;;;;;4.75;4.35;;;;;;;13.19;72.95;100993.31;5036434;28;20032;-83
2022/06/22 02:20:41;;;;;;;4.82;4.00;;;;;;;13.17;72.76;100990.72;5036590;28;20121;-83
2022/06/22 02:23:09;;;;;;;5.78;4.60;;;;;;;13.16;73.38;100985.50;5053354;28;20116;-83
2022/06/22 02:25:41;;;;;;;5.07;4.68;;;;;;;13.13;73.88;100982.94;5069982;28;20059;-84
2022/06/22 02:28:06;;;;;;;5.85;5.22;;;;;;;13.12;74.22;100973.38;5036530;28;20183;-83
2022/06/22 02:30:32;;;;;;;7.30;5.55;;;;;;;13.11;72.93;100971.63;5052915;28;20538;-83
2022/06/22 02:32:58;;;;;;;5.15;4.75;;;;;;;13.09;72.84;100966.44;5036582;28;20068;-84
2022/06/22 02:35:23;;;;;;;5.57;5.03;;;;;;;13.07;73.13;100969.97;5053108;28;20070;-83
2022/06/22 02:38:02;;;;;;;5.85;5.07;;;;;;;13.03;72.89;100979.66;5036348;28;20116;-83
2022/06/22 02:40:29;;;;;;;5.43;5.03;;;;;;;13.01;73.90;100974.44;5036374;28;20079;-83
2022/06/22 02:45:38;;;;;;;5.43;5.07;;;;;;;12.97;72.55;100972.78;5053387;28;20103;-83
2022/06/22 02:48:26;;;;;;;6.10;5.10;;;;;;;12.92;73.57;100973.78;5036089;28;20478;-84
2022/06/22 02:50:59;;;;;;;5.90;5.40;;;;;;;12.90;73.36;100968.59;5035918;28;20028;-83
2022/06/22 02:53:33;;;;;;;5.95;5.40;;;;;;;12.89;73.18;100964.22;5036049;28;20028;-83
2022/06/22 02:55:58;;;;;;;5.60;5.18;;;;;;;12.86;72.91;100961.69;5036523;28;20025;-83
2022/06/22 02:58:30;;;;;;;6.05;5.55;;;;;;;12.85;72.78;100944.22;5035925;28;20082;-83
2022/06/22 03:00:58;;;;;;;5.47;5.10;;;;;;;12.83;73.57;100946.03;5036040;28;20433;-83
2022/06/22 03:03:24;;;;;;;5.63;5.25;;;;;;;12.81;73.49;100947.81;5034905;28;20099;-83
2022/06/22 03:05:51;;;;;;;5.45;5.03;;;;;;;12.78;73.73;100953.97;5052377;28;20025;-83
2022/06/22 03:08:18;;;;;;;5.95;5.07;;;;;;;12.76;74.11;100949.66;5052356;28;20023;-83
2022/06/22 03:10:45;;;;;;;5.85;5.32;;;;;;;12.76;74.00;100949.66;5035676;28;20070;-84
2022/06/22 03:13:28;;;;;;;8.05;5.05;;;;;;;12.75;74.02;100953.16;5052323;28;20021;-83
2022/06/22 03:15:54;;;;;;;5.68;5.15;;;;;;;12.71;75.18;100955.00;5035773;28;20497;-83
2022/06/22 03:18:24;;;;;;;6.00;5.40;;;;;;;12.73;74.39;100954.97;5035547;28;20025;-83
2022/06/22 03:21:05;;;;;;;6.10;5.70;;;;;;;12.71;74.64;100952.38;5035581;28;20017;-83
2022/06/22 03:23:50;;;;;;;5.10;4.65;;;;;;;12.71;73.44;100944.53;5035447;28;20025;-83
2022/06/22 03:26:19;;;;;;;5.65;5.15;;;;;;;12.72;73.64;100948.00;5068990;28;20188;-81
2022/06/22 03:29:02;;;;;;;5.85;5.35;;;;;;;12.68;74.15;100944.59;5035618;28;20059;-81
2022/06/22 03:31:33;;;;;;;6.13;5.68;;;;;;;12.67;74.38;100951.56;5035408;28;20033;-81
2022/06/22 03:34:06;;;;;;;6.45;6.00;;;;;;;12.64;73.84;100946.41;5052275;28;20429;-81
2022/06/22 03:36:36;;;;;;;6.60;5.53;;;;;;;12.64;74.23;100951.66;5035546;28;20052;-81
2022/06/22 03:39:05;;;;;;;6.60;5.95;;;;;;;12.65;73.66;100955.13;5035291;28;20021;-81
2022/06/22 03:41:34;;;;;;;6.50;5.95;;;;;;;12.64;74.00;100959.50;5035045;28;20021;-81
2022/06/22 03:44:02;;;;;;;6.45;5.88;;;;;;;12.64;73.82;100949.03;5035357;28;20025;-81
2022/06/22 03:46:35;;;;;;;6.22;5.72;;;;;;;12.62;73.93;100961.28;5068379;28;20498;-81
2022/06/22 03:49:18;;;;;;;5.97;5.50;;;;;;;12.59;75.33;100948.25;5068221;28;20067;-81
2022/06/22 03:51:50;;;;;;;6.45;5.93;;;;;;;12.60;75.67;100957.00;5068131;28;20033;-81
2022/06/22 03:54:34;;;;;;;5.80;5.35;;;;;;;12.62;75.12;100953.41;5051603;28;20040;-81
2022/06/22 03:57:03;;;;;;;6.57;5.97;;;;;;;12.61;74.97;100956.06;5035044;28;20052;-81
2022/06/22 03:59:29;;;;;;;5.75;5.15;;;;;;;12.62;75.58;100969.16;5034925;28;20036;-81
2022/06/22 04:01:56;;;;;;;6.15;5.72;;;;;;;12.63;76.49;100975.28;5035150;28;20032;-81
2022/06/22 04:04:23;;;;;;;6.20;5.70;;;;;;;12.65;76.05;100966.50;5035147;28;20127;-81
2022/06/22 04:06:52;;;;;;;6.10;5.70;;;;;;;12.67;75.87;100962.06;5035566;28;20502;-81
2022/06/22 04:09:19;;;;;;;5.88;5.10;;;;;;;12.67;76.63;100962.06;5034941;28;20032;-81
2022/06/22 04:11:58;;;;;;;6.75;5.65;;;;;;;12.68;76.56;100974.28;5034915;28;20021;-81
2022/06/22 04:15:12;;;;;;;6.20;5.63;;;;;;;12.73;76.32;100975.94;5034847;28;20032;-83
2022/06/22 04:17:42;;;;;;;6.05;5.65;;;;;;;12.73;76.94;100974.16;5038096;28;20033;-79
2022/06/22 04:20:52;;;;;;;6.65;6.07;;;;;;;12.74;77.33;100980.28;5034352;28;20024;-79
2022/06/22 04:23:23;;;;;;;7.82;7.00;;;;;;;12.76;77.83;100981.09;5051082;28;20021;-79
2022/06/22 04:25:49;;;;;;;7.43;6.78;;;;;;;12.78;78.69;100989.81;5067670;28;20026;-79
2022/06/22 04:28:15;;;;;;;7.20;6.45;;;;;;;12.83;77.75;100987.97;5034092;28;20087;-79
2022/06/22 04:30:44;;;;;;;8.45;6.22;;;;;;;12.85;77.81;100991.41;5050822;28;20032;-79
2022/06/22 04:33:27;;;;;;;6.57;6.07;;;;;;;12.91;78.04;100990.41;5034881;28;20021;-79
2022/06/22 04:36:15;;;;;;;8.18;6.00;;;;;;;12.94;77.82;100982.47;5052857;28;20031;-79
2022/06/22 04:38:44;;;;;;;6.80;6.07;;;;;;;12.98;77.88;100987.63;5035854;28;20056;-79
2022/06/22 04:41:12;;;;;;;6.78;6.18;;;;;;;12.98;78.50;100990.25;5035656;28;20446;-79
2022/06/22 04:43:38;;;;;;;7.20;6.15;;;;;;;13.01;78.50;100987.56;5069363;28;20021;-79
2022/06/22 04:46:05;;;;;;;7.35;6.72;;;;;;;13.03;78.33;100995.41;5036070;28;20092;-79
2022/06/22 04:48:37;;;;;;;6.68;6.03;;;;;;;13.06;78.07;101000.59;5035817;28;20029;-79
2022/06/22 04:51:05;;;;;;;6.47;6.00;;;;;;;13.11;78.61;101003.09;5052365;28;20491;-79
2022/06/22 04:53:38;;;;;;;5.45;5.15;;;;;;;13.13;79.12;101011.78;5036040;28;20104;-79
2022/06/22 04:56:15;;;;;;;7.75;6.90;;;;;;;13.15;78.80;101004.75;5034882;28;20032;-79
2022/06/22 04:58:45;;;;;;;6.70;6.10;;;;;;;13.18;78.24;101004.69;5034232;28;20024;-79
2022/06/22 05:01:34;;;;;;;7.07;6.38;;;;;;;13.20;79.18;101013.41;5050506;28;20067;-79
2022/06/22 05:04:05;;;;;;;6.28;5.78;;;;;;;13.22;78.32;101011.59;5051830;28;20028;-83
2022/06/22 05:06:51;;;;;;;8.77;5.78;;;;;;;13.23;78.50;101009.84;5034577;28;20087;-83
2022/06/22 05:09:24;;;;;;;6.13;5.63;;;;;;;13.26;78.36;101012.41;5033392;28;20021;-83
2022/06/22 05:11:49;;;;;;;5.90;5.45;;;;;;;13.28;78.29;101016.72;5033902;28;20028;-83
2022/06/22 05:14:19;;;;;;;7.60;5.75;;;;;;;13.30;79.17;101017.53;5033912;28;20352;-83
2022/06/22 05:16:51;;;;;;;6.35;5.65;;;;;;;13.33;78.83;101030.59;5034239;28;20106;-83
2022/06/22 05:19:17;;;;;;;6.38;5.80;;;;;;;13.34;78.44;101031.44;5035016;28;20487;-83
2022/06/22 05:21:47;;;;;;;6.10;5.57;;;;;;;13.35;78.16;101034.06;5032855;28;20391;-83
2022/06/22 05:24:21;;;;;;;5.97;5.57;;;;;;;13.35;78.00;101026.19;5016237;28;20028;-82
2022/06/22 05:26:49;;;;;;;10.80;6.00;;;;;;;13.37;78.44;101020.06;5016518;28;20114;-82
2022/06/22 05:29:19;;;;;;;6.18;5.57;;;;;;;13.40;78.27;101025.22;5035147;28;20028;-81
2022/06/22 05:32:06;;;;;;;7.38;5.22;;;;;;;13.44;77.99;101017.28;5019467;28;20206;-82
2022/06/22 05:34:34;;;;;;;6.68;5.35;;;;;;;13.48;77.93;101007.53;5034229;28;20488;-83
2022/06/22 05:37:06;;;;;;;6.20;5.65;;;;;;;13.51;77.77;101002.22;5033194;28;20041;-82
2022/06/22 05:39:33;;;;;;;5.90;5.30;;;;;;;13.55;77.80;101009.13;5050958;28;20479;-81
2022/06/22 05:42:00;;;;;;;5.50;5.00;;;;;;;13.59;78.82;101000.28;5050864;28;20026;-81
2022/06/22 05:44:26;;;;;;;7.18;5.80;;;;;;;13.63;78.49;100991.47;5051147;28;20482;-82
2022/06/22 05:46:57;;;;;;;6.40;5.90;;;;;;;13.64;77.18;100985.28;5051218;28;20394;-82
2022/06/22 05:49:28;;;;;;;7.80;5.88;;;;;;;13.64;76.76;100984.44;5050830;28;20565;-82
2022/06/22 05:52:31;;;;;;;5.78;5.20;;;;;;;13.65;76.60;100981.75;5034398;28;20036;-82
2022/06/22 05:55:05;;;;;;;3.88;3.67;;;;;;;13.68;76.10;100988.72;5050962;28;20391;-82
2022/06/22 05:57:47;;;;;;;8.02;4.93;;;;;;;13.69;75.74;100985.19;5050706;28;20021;-83
2022/06/22 06:00:44;;;;;;;4.82;4.43;;;;;;;13.76;76.31;100978.03;5050634;28;20526;-82
2022/06/22 06:03:12;;;;;;;9.85;4.25;;;;;;;13.79;76.30;100970.06;5033150;28;20037;-83
2022/06/22 06:05:48;;;;;;;5.40;4.03;;;;;;;13.80;76.20;100969.16;5050565;28;20021;-83
2022/06/22 06:08:21;;;;;;;8.80;4.63;;;;;;;13.83;75.89;100972.56;5050471;28;20389;-83
2022/06/22 06:10:47;;;;;;;5.00;4.50;;;;;;;13.86;76.27;100972.50;5050207;28;20507;-83
2022/06/22 06:13:23;;;;;;;5.72;4.40;;;;;;;13.89;75.94;100976.78;5033939;28;20032;-82
2022/06/22 06:15:52;;;;;;;8.25;5.18;;;;;;;13.93;75.83;100973.19;5051902;28;20360;-81
2022/06/22 06:18:22;;;;;;;7.15;5.25;;;;;;;13.96;75.36;100975.75;5050680;28;20034;-81
2022/06/22 06:20:52;;;;;;;4.53;4.13;;;;;;;13.99;75.33;100970.41;5051639;28;20022;-81
2022/06/22 06:23:28;;;;;;;9.10;4.50;;;;;;;14.03;75.37;100977.31;5033565;28;20033;-81
2022/06/22 06:29:09;;;;;;;6.20;3.70;;;;;;;14.12;74.76;100972.72;5033583;28;20083;-81
2022/06/22 06:31:46;;;;;;;4.15;3.15;;;;;;;14.17;75.62;100976.09;5032906;28;20128;-81
2022/06/22 06:34:16;;;;;;;4.43;4.00;;;;;;;14.22;74.65;100973.31;5050548;28;20067;-81
2022/06/22 06:37:12;;;;;;;5.40;4.03;;;;;;;14.23;74.60;100968.03;5033706;28;20545;-81
2022/06/22 06:39:45;;;;;;;6.00;4.22;;;;;;;14.26;74.67;100967.09;5029011;28;20040;-83
2022/06/22 06:42:25;;;;;;;8.50;3.92;;;;;;;14.32;75.29;100970.41;5049996;28;20064;-83
2022/06/22 06:44:52;;;;;;;5.85;4.20;;;;;;;14.35;74.87;100975.56;5050154;28;20025;-83
2022/06/22 06:47:26;;;;;;;6.75;3.80;;;;;;;14.37;74.54;100973.78;5050737;28;20045;-83
2022/06/22 06:49:59;;;;;;;7.22;3.60;;;;;;;14.42;74.41;100978.03;5050137;28;20105;-83
2022/06/22 06:52:42;;;;;;;6.03;3.80;;;;;;;14.47;74.80;100968.28;5050685;28;20021;-83
2022/06/22 06:55:14;;;;;;;8.20;3.88;;;;;;;14.52;74.83;100974.28;5051117;28;20112;-83
2022/06/22 06:58:14;;;;;;;6.60;3.67;;;;;;;14.56;74.18;100989.03;5050241;28;20025;-83
2022/06/22 07:00:40;;;;;;;8.45;3.75;;;;;;;14.60;73.23;100985.44;5058777;28;20071;-83
2022/06/22 07:03:25;;;;;;;4.13;3.47;;;;;;;14.65;73.42;100988.78;5051824;28;20394;-82
2022/06/22 07:05:51;;;;;;;4.18;3.67;;;;;;;14.69;74.07;101003.56;5052604;28;20032;-82
2022/06/22 07:08:19;;;;;;;6.28;3.22;;;;;;;14.73;73.31;101009.63;5036432;28;20029;-83
2022/06/22 07:10:47;;;;;;;5.32;3.55;;;;;;;14.78;74.12;101015.63;5035597;28;20025;-82
2022/06/22 07:13:49;;;;;;;4.40;3.53;;;;;;;14.83;74.53;101016.34;5052294;28;20554;-82
2022/06/22 07:16:20;;;;;;;5.93;3.47;;;;;;;14.87;74.25;101025.00;5028738;28;20051;-82
2022/06/22 07:19:11;;;;;;;5.35;3.20;;;;;;;14.91;74.14;101020.53;5035924;28;20024;-82
2022/06/22 07:21:47;;;;;;;5.30;3.40;;;;;;;14.94;73.68;101021.28;5036148;28;20021;-83
2022/06/22 07:24:20;;;;;;;5.25;3.88;;;;;;;14.97;73.17;101029.09;5036834;28;20025;-83
2022/06/22 07:26:57;;;;;;;8.95;3.88;;;;;;;15.02;73.26;101027.19;5037300;28;20025;-83
2022/06/22 07:29:42;;;;;;;5.55;3.60;;;;;;;15.07;73.03;101024.41;5036002;28;20052;-83
2022/06/22 07:32:33;;;;;;;3.70;3.40;;;;;;;15.11;73.77;101023.41;5053712;28;20029;-82
2022/06/22 07:35:24;;;;;;;4.75;4.13;;;;;;;15.16;73.85;101015.38;5037078;28;20029;-83
2022/06/22 07:38:34;;;;;;;4.30;3.88;;;;;;;15.19;72.73;101010.91;5052847;28;20394;-83
2022/06/22 07:43:48;;;;;;;3.65;3.35;;;;;;;15.27;72.63;100997.50;5053295;28;20043;-83
2022/06/22 07:46:21;;;;;;;7.50;3.17;;;;;;;15.29;72.23;100995.69;5037642;28;20083;-83
2022/06/22 07:48:49;;;;;;;5.72;3.20;;;;;;;15.32;72.09;100994.72;5036670;28;20032;-83
2022/06/22 07:51:22;;;;;;;5.57;3.70;;;;;;;15.34;72.31;100996.41;5035520;28;20033;-83
2022/06/22 07:54:06;;;;;;;5.18;4.10;;;;;;;15.38;72.16;100992.75;5036007;28;20367;-82
2022/06/22 07:56:52;;;;;;;3.90;3.40;;;;;;;15.43;71.43;100989.97;5052657;28;20027;-83
2022/06/22 07:59:50;;;;;;;4.35;3.85;;;;;;;15.49;72.02;100992.44;5052175;28;20053;-82
2022/06/22 08:02:21;;;;;;;6.57;3.22;;;;;;;15.54;70.56;100994.91;5052031;28;20044;-83
2022/06/22 08:04:53;;;;;;;4.93;4.05;;;;;;;15.57;70.35;100996.56;5035534;28;20036;-82
2022/06/22 08:07:25;;;;;;;6.70;3.65;;;;;;;15.59;70.05;100998.25;5051775;28;20102;-82
2022/06/22 08:10:08;;;;;;;3.85;3.50;;;;;;;15.62;69.17;100998.16;5035437;28;20025;-83
2022/06/22 08:12:35;;;;;;;4.53;3.50;;;;;;;15.67;69.41;100995.38;5035659;28;20079;-82
2022/06/22 08:15:05;;;;;;;7.15;3.90;;;;;;;15.70;68.87;100992.63;5035843;28;20040;-83
2022/06/22 08:17:31;;;;;;;5.53;3.35;;;;;;;15.75;69.86;100997.75;5035418;28;20501;-82
2022/06/22 08:19:57;;;;;;;5.95;3.65;;;;;;;15.81;70.56;100995.81;5052907;28;20050;-83
2022/06/22 08:22:22;;;;;;;4.18;3.40;;;;;;;15.85;70.74;100999.19;5035044;28;20025;-83
2022/06/22 08:24:50;;;;;;;4.20;3.15;;;;;;;15.87;68.95;100998.25;5034988;28;20025;-82
2022/06/22 08:27:18;;;;;;;4.68;3.25;;;;;;;15.90;68.27;101013.09;5036721;28;20029;-82
2022/06/22 08:29:46;;;;;;;6.55;3.63;;;;;;;15.93;68.11;101007.72;5033218;28;20483;-82
2022/06/22 08:32:31;;;;;;;5.97;3.50;;;;;;;15.98;67.68;101004.91;5035411;28;20104;-82
2022/06/22 08:35:16;;;;;;;4.57;3.60;;;;;;;16.03;68.22;101008.25;5035422;28;20116;-83
2022/06/22 08:37:48;;;;;;;8.68;3.35;;;;;;;16.11;67.11;101010.63;5028590;28;20025;-82
2022/06/22 08:40:38;;;;;;;6.53;3.78;;;;;;;16.18;67.51;101006.88;5045929;28;20477;-83
2022/06/22 08:43:24;;;;;;;5.28;3.58;;;;;;;16.23;67.75;101012.84;5032612;28;20087;-83
2022/06/22 08:45:55;;;;;;;4.68;3.58;;;;;;;16.27;67.65;101001.28;5034190;28;20029;-83
2022/06/22 08:48:53;;;;;;;4.63;4.22;;;;;;;16.31;69.02;101008.16;5033604;28;20045;-82
2022/06/22 08:51:34;;;;;;;4.85;4.22;;;;;;;16.36;69.32;101011.50;4981435;28;20115;-82
2022/06/22 08:54:12;;;;;;;5.93;4.13;;;;;;;16.44;68.10;101019.13;5016862;28;20123;-83
2022/06/22 08:57:02;;;;;;;6.20;3.40;;;;;;;16.49;67.45;101016.34;5034693;28;20026;-83
2022/06/22 08:59:46;;;;;;;5.70;4.53;;;;;;;16.56;66.32;101002.91;5033787;28;20112;-83
2022/06/22 09:02:29;;;;;;;7.72;4.00;;;;;;;16.61;66.31;101010.63;5034619;28;20029;-83
2022/06/22 09:04:55;;;;;;;5.82;3.50;;;;;;;16.66;66.44;101011.31;5037925;28;20029;-83
2022/06/22 09:07:48;;;;;;;4.47;3.65;;;;;;;16.74;67.05;101013.66;5037562;28;20021;-82
2022/06/22 09:10:27;;;;;;;3.95;3.65;;;;;;;16.81;66.81;101011.66;5035672;28;20116;-83
2022/06/22 09:13:30;;;;;;;7.57;3.90;;;;;;;16.86;66.26;101020.25;5036934;28;20071;-83
2022/06/22 09:16:13;;;;;;;6.18;3.78;;;;;;;16.90;65.81;101016.63;5037254;28;20018;-82
2022/06/22 09:19:00;;;;;;;5.97;4.05;;;;;;;16.95;65.92;101014.69;5036394;28;20026;-83
2022/06/22 09:21:37;;;;;;;4.88;3.72;;;;;;;17.05;65.20;101015.19;5036016;28;20025;-82
2022/06/22 09:24:32;;;;;;;4.03;3.65;;;;;;;17.12;63.26;101021.94;5036327;28;20545;-83
2022/06/22 09:27:06;;;;;;;5.68;3.67;;;;;;;17.13;62.95;101028.09;5035690;28;20032;-82
2022/06/22 09:30:01;;;;;;;6.90;3.80;;;;;;;17.17;61.90;101027.91;5036517;28;20033;-83
2022/06/22 09:32:31;;;;;;;6.63;4.45;;;;;;;17.21;61.77;101026.03;5037098;28;20482;-82
2022/06/22 09:34:59;;;;;;;5.10;3.67;;;;;;;17.25;62.86;101027.63;5035731;28;20021;-83
2022/06/22 09:37:28;;;;;;;6.20;3.80;;;;;;;17.32;63.65;101029.09;5034896;28;20037;-83
2022/06/22 09:40:08;;;;;;;7.63;3.78;;;;;;;17.34;63.20;101027.28;5034925;28;20040;-82
2022/06/22 09:42:40;;;;;;;5.22;4.18;;;;;;;17.33;62.52;101035.22;5034855;28;20112;-82
2022/06/22 09:45:18;;;;;;;8.15;4.20;;;;;;;17.32;62.61;101029.09;5035355;28;20040;-82
2022/06/22 09:48:13;;;;;;;5.38;3.53;;;;;;;17.37;62.00;101031.56;5034957;28;20425;-82
2022/06/22 09:51:10;;;;;;;3.92;3.63;;;;;;;17.46;61.96;101032.97;5011775;28;20056;-82
2022/06/22 09:53:45;;;;;;;4.55;3.65;;;;;;;17.54;62.45;101030.88;5013430;28;20087;-82
2022/06/22 09:56:27;;;;;;;8.38;3.90;;;;;;;17.61;62.00;101032.34;5036599;28;20025;-82
2022/06/22 09:59:13;;;;;;;10.80;4.40;;;;;;;17.68;62.22;101036.50;5037283;28;20111;-83
2022/06/22 10:02:00;;;;;;;8.25;4.43;;;;;;;17.72;62.10;101032.81;5035738;28;20021;-83
2022/06/22 10:04:50;;;;;;;5.38;3.72;;;;;;;17.82;62.17;101027.13;5035655;28;20471;-83
2022/06/22 10:07:34;;;;;;;4.90;3.55;;;;;;;17.93;62.85;101029.34;5035816;28;20601;-83
2022/06/22 10:10:14;;;;;;;6.20;3.95;;;;;;;17.98;61.12;101033.50;5036230;28;20104;-83
2022/06/22 10:12:58;;;;;;;7.03;3.70;;;;;;;18.02;61.11;101035.09;5034182;28;20099;-82
2022/06/22 10:15:29;;;;;;;6.22;3.45;;;;;;;18.06;59.19;101031.44;5036965;28;20033;-83
2022/06/22 10:18:16;;;;;;;4.03;3.60;;;;;;;18.07;60.03;101033.13;5063642;23;20095;-81
2022/06/22 10:20:47;;;;;;;4.13;3.17;;;;;;;18.12;59.19;101034.72;5050599;28;20051;-82
2022/06/22 10:23:39;;;;;;;3.72;3.42;;;;;;;18.12;58.75;101024.16;5053907;28;20053;-82
2022/06/22 10:26:23;;;;;;;4.20;3.20;;;;;;;18.16;58.70;101025.72;5053849;28;20061;-82
2022/06/22 10:29:00;;;;;;;6.13;3.00;;;;;;;18.19;57.04;101020.34;5053748;28;20074;-82
2022/06/22 10:31:33;;;;;;;3.60;3.22;;;;;;;18.23;57.11;101022.78;5053372;28;20033;-82
2022/06/22 10:34:20;;;;;;;3.30;2.80;;;;;;;18.30;59.25;101018.06;5053575;28;20094;-81
2022/06/22 10:37:05;;;;;;;6.78;3.75;;;;;;;18.35;57.98;101025.81;5048762;28;20048;-82
2022/06/22 10:40:02;;;;;;;2.92;2.65;;;;;;;18.42;56.95;101022.81;5033316;28;20499;-82
2022/06/22 10:45:39;;;;;;;4.25;3.65;;;;;;;18.53;59.52;101018.88;5053612;28;20085;-82
2022/06/22 10:48:23;;;;;;;3.85;3.25;;;;;;;18.63;58.89;101025.44;5035057;28;20473;-82
2022/06/22 10:51:27;;;;;;;4.03;3.22;;;;;;;18.70;56.94;101015.44;5052616;28;20039;-82
2022/06/22 10:54:13;;;;;;;3.15;2.80;;;;;;;18.79;56.35;101008.88;4999153;28;20033;-82
2022/06/22 10:56:48;;;;;;;4.07;2.83;;;;;;;18.84;54.71;101012.16;5052171;28;20044;-82
2022/06/22 10:59:32;;;;;;;4.53;2.53;;;;;;;18.92;53.91;101004.75;5052382;28;20028;-82
2022/06/22 11:02:21;;;;;;;8.98;3.30;;;;;;;18.95;54.51;101009.94;5053902;28;20429;-82
2022/06/22 11:05:01;;;;;;;6.70;3.20;;;;;;;18.98;55.45;101004.50;5053303;28;20029;-82
2022/06/22 11:08:04;;;;;;;3.97;2.40;;;;;;;19.03;55.20;101007.78;5036155;28;20091;-81
2022/06/22 11:10:48;;;;;;;4.10;2.28;;;;;;;19.08;53.46;101000.47;5052492;28;20024;-85
2022/06/22 11:13:41;;;;;;;2.60;2.17;;;;;;;19.19;52.27;100996.47;5052937;28;20037;-84
2022/06/22 11:16:10;;;;;;;1.85;1.50;;;;;;;19.24;50.39;100997.97;5053060;28;20025;-85
2022/06/22 11:19:03;;;;;;;2.85;1.80;;;;;;;19.31;48.83;100989.75;5052823;28;20039;-85
2022/06/22 11:21:47;;;;;;;1.60;1.50;;;;;;;19.41;49.67;100996.28;5052681;28;20044;-85
2022/06/22 11:24:13;;;;;;;3.50;1.90;;;;;;;19.46;50.12;101002.22;5051928;28;20036;-85
2022/06/22 11:33:11;;;;;;;2.70;1.88;;;;;;;19.59;48.99;101000.69;5052835;28;20100;-84
2022/06/22 11:35:51;;;;;;;2.88;1.90;;;;;;;19.66;49.22;101001.25;5036261;28;20537;-85
2022/06/22 11:38:19;;;;;;;6.32;2.20;;;;;;;19.73;51.36;100992.06;5035822;28;20025;-85
2022/06/22 11:41:05;;;;;;;2.47;2.28;;;;;;;19.82;50.63;100989.91;5052267;28;20025;-85
2022/06/22 11:43:55;;;;;;;2.58;2.15;;;;;;;19.93;49.92;100993.75;5053566;28;20021;-85
2022/06/22 11:46:50;;;;;;;2.13;1.77;;;;;;;20.04;49.70;100993.19;5052461;28;20444;-85
2022/06/22 11:49:40;;;;;;;2.13;1.90;;;;;;;20.14;47.70;100992.69;5031106;28;20505;-84
2022/06/22 11:52:35;;;;;;;3.90;1.77;;;;;;;20.24;47.28;100980.69;5052054;28;20479;-84
2022/06/22 11:55:18;;;;;;;1.92;1.55;;;;;;;20.33;45.80;100982.88;5035447;28;20025;-85
2022/06/22 11:58:07;;;;;;;2.75;2.00;;;;;;;20.40;45.41;100986.91;5052448;28;20029;-84
2022/06/22 12:00:52;;;;;;;2.33;1.60;;;;;;;20.48;45.62;100977.66;5034657;28;20025;-84
2022/06/22 12:03:47;;;;;;;1.88;1.35;;;;;;;20.54;45.52;100972.91;5035358;28;20052;-85
2022/06/22 12:06:32;;;;;;;2.05;1.48;;;;;;;20.55;42.07;100984.38;5050378;28;20037;-84
2022/06/22 12:09:13;;;;;;;5.05;1.38;;;;;;;20.66;41.89;100975.84;5031205;28;20433;-85
2022/06/22 12:11:57;;;;;;;2.17;1.23;;;;;;;20.75;41.39;100980.66;5031134;28;20442;-85
2022/06/22 12:17:18;;;;;;;1.70;1.40;;;;;;;20.83;42.55;100956.38;5035621;28;20039;-85
2022/06/22 12:20:02;;;;;;;2.95;1.50;;;;;;;20.97;43.63;100963.56;5028215;28;20040;-84
2022/06/22 12:22:31;;;;;;;3.63;2.13;;;;;;;21.13;44.46;100960.91;5031151;28;20438;-84
2022/06/22 12:25:21;;;;;;;2.20;1.80;;;;;;;21.33;45.73;100960.63;5014952;28;20052;-84
2022/06/22 12:28:15;;;;;;;3.90;1.92;;;;;;;21.43;42.85;100948.53;5031047;28;20386;-84
2022/06/22 12:30:57;;;;;;;1.95;1.45;;;;;;;21.47;41.56;100937.72;4997548;28;20033;-84
2022/06/22 12:33:30;;;;;;;3.22;1.40;;;;;;;21.53;41.65;100934.72;5032718;28;20119;-84